sensor_id;sensor_type;location;lat;lon;timestamp;temperature;humidity
5723;DHT22;2886;49.722;8.612;2023-03-13T00:01:11;10.70;99.90
5723;DHT22;2886;49.722;8.612;2023-03-13T00:03:37;10.70;99.90
5723;DHT22;2886;49.722;8.612;2023-03-13T00:06:03;10.80;99.90
5723;DHT22;2886;49.722;8.612;2023-03-13T00:08:29;10.80;99.90
5723;DHT22;2886;49.722;8.612;2023-03-13T00:10:54;10.80;99.90
5723;DHT22;2886;49.722;8.612;2023-03-13T00:13:20;10.80;99.90
5723;DHT22;2886;49.722;8.612;2023-03-13T00:15:46;10.90;99.90
5723;DHT22;2886;49.722;8.612;2023-03-13T00:18:12;10.90;99.90
5723;DHT22;2886;49.722;8.612;2023-03-13T00:20:38;10.90;99.90
5723;DHT22;2886;49.722;8.612;2023-03-13T00:23:03;10.90;99.90
5723;DHT22;2886;49.722;8.612;2023-03-13T00:25:29;10.90;99.90
5723;DHT22;2886;49.722;8.612;2023-03-13T00:27:55;10.90;99.90
5723;DHT22;2886;49.722;8.612;2023-03-13T00:30:21;11.00;99.90
5723;DHT22;2886;49.722;8.612;2023-03-13T00:32:46;10.90;99.90
5723;DHT22;2886;49.722;8.612;2023-03-13T00:35:14;10.90;99.90
5723;DHT22;2886;49.722;8.612;2023-03-13T00:37:39;10.90;99.90
5723;DHT22;2886;49.722;8.612;2023-03-13T00:40:06;10.90;99.90
5723;DHT22;2886;49.722;8.612;2023-03-13T00:42:33;10.90;99.90
5723;DHT22;2886;49.722;8.612;2023-03-13T00:44:58;10.90;99.90
5723;DHT22;2886;49.722;8.612;2023-03-13T00:47:24;10.90;99.90
5723;DHT22;2886;49.722;8.612;2023-03-13T00:49:50;10.90;99.90
5723;DHT22;2886;49.722;8.612;2023-03-13T00:52:15;10.90;99.90
5723;DHT22;2886;49.722;8.612;2023-03-13T00:54:41;10.90;99.90
5723;DHT22;2886;49.722;8.612;2023-03-13T00:57:07;10.90;99.90
5723;DHT22;2886;49.722;8.612;2023-03-13T00:59:33;11.00;99.90
5723;DHT22;2886;49.722;8.612;2023-03-13T01:01:59;11.00;99.90
5723;DHT22;2886;49.722;8.612;2023-03-13T01:04:24;11.00;99.90
5723;DHT22;2886;49.722;8.612;2023-03-13T01:06:50;11.00;99.90
5723;DHT22;2886;49.722;8.612;2023-03-13T01:09:16;11.00;99.90
5723;DHT22;2886;49.722;8.612;2023-03-13T01:11:43;11.00;99.90
5723;DHT22;2886;49.722;8.612;2023-03-13T01:14:12;11.10;99.90
5723;DHT22;2886;49.722;8.612;2023-03-13T01:16:38;11.10;99.90
5723;DHT22;2886;49.722;8.612;2023-03-13T01:19:08;11.10;99.90
5723;DHT22;2886;49.722;8.612;2023-03-13T01:21:34;11.10;99.80
5723;DHT22;2886;49.722;8.612;2023-03-13T01:24:01;11.10;99.70
5723;DHT22;2886;49.722;8.612;2023-03-13T01:26:27;11.20;99.60
5723;DHT22;2886;49.722;8.612;2023-03-13T01:28:53;11.10;99.60
5723;DHT22;2886;49.722;8.612;2023-03-13T01:31:27;11.20;99.60
5723;DHT22;2886;49.722;8.612;2023-03-13T01:33:56;11.20;99.40
5723;DHT22;2886;49.722;8.612;2023-03-13T01:36:22;11.20;99.40
5723;DHT22;2886;49.722;8.612;2023-03-13T01:38:50;11.20;99.30
5723;DHT22;2886;49.722;8.612;2023-03-13T01:41:16;11.20;99.10
5723;DHT22;2886;49.722;8.612;2023-03-13T01:43:43;11.20;99.20
5723;DHT22;2886;49.722;8.612;2023-03-13T01:46:12;11.20;99.10
5723;DHT22;2886;49.722;8.612;2023-03-13T01:54:55;11.20;99.10
5723;DHT22;2886;49.722;8.612;2023-03-13T01:57:27;11.20;99.20
5723;DHT22;2886;49.722;8.612;2023-03-13T02:02:36;11.20;99.00
5723;DHT22;2886;49.722;8.612;2023-03-13T02:05:04;11.20;99.10
5723;DHT22;2886;49.722;8.612;2023-03-13T02:07:45;11.20;99.50
5723;DHT22;2886;49.722;8.612;2023-03-13T02:10:12;11.20;99.80
5723;DHT22;2886;49.722;8.612;2023-03-13T02:12:39;11.20;99.90
5723;DHT22;2886;49.722;8.612;2023-03-13T02:15:25;11.20;99.90
5723;DHT22;2886;49.722;8.612;2023-03-13T02:17:52;11.20;99.90
5723;DHT22;2886;49.722;8.612;2023-03-13T02:20:19;11.10;99.90
5723;DHT22;2886;49.722;8.612;2023-03-13T02:28:14;11.00;99.90
5723;DHT22;2886;49.722;8.612;2023-03-13T02:30:43;11.00;99.90
5723;DHT22;2886;49.722;8.612;2023-03-13T02:33:11;11.00;99.90
5723;DHT22;2886;49.722;8.612;2023-03-13T02:35:36;11.00;99.90
5723;DHT22;2886;49.722;8.612;2023-03-13T02:38:06;11.00;99.90
5723;DHT22;2886;49.722;8.612;2023-03-13T02:40:35;11.00;99.90
5723;DHT22;2886;49.722;8.612;2023-03-13T02:43:06;11.00;99.90
5723;DHT22;2886;49.722;8.612;2023-03-13T02:45:32;11.00;99.90
5723;DHT22;2886;49.722;8.612;2023-03-13T02:47:58;11.00;99.90
5723;DHT22;2886;49.722;8.612;2023-03-13T02:50:24;11.00;99.90
5723;DHT22;2886;49.722;8.612;2023-03-13T02:53:15;11.00;99.90
5723;DHT22;2886;49.722;8.612;2023-03-13T02:55:41;10.90;99.90
5723;DHT22;2886;49.722;8.612;2023-03-13T02:58:07;10.90;99.90
5723;DHT22;2886;49.722;8.612;2023-03-13T03:00:32;10.90;99.90
5723;DHT22;2886;49.722;8.612;2023-03-13T03:02:58;10.80;99.90
5723;DHT22;2886;49.722;8.612;2023-03-13T03:05:24;10.80;99.90
5723;DHT22;2886;49.722;8.612;2023-03-13T03:07:50;10.80;99.90
5723;DHT22;2886;49.722;8.612;2023-03-13T03:10:17;10.80;99.90
5723;DHT22;2886;49.722;8.612;2023-03-13T03:12:42;10.80;99.90
5723;DHT22;2886;49.722;8.612;2023-03-13T03:15:09;10.80;99.90
5723;DHT22;2886;49.722;8.612;2023-03-13T03:17:34;10.80;99.90
5723;DHT22;2886;49.722;8.612;2023-03-13T03:20:01;10.80;99.90
5723;DHT22;2886;49.722;8.612;2023-03-13T03:22:27;10.80;99.90
5723;DHT22;2886;49.722;8.612;2023-03-13T03:24:52;10.80;99.90
5723;DHT22;2886;49.722;8.612;2023-03-13T03:27:18;10.80;99.90
5723;DHT22;2886;49.722;8.612;2023-03-13T03:29:43;10.80;99.90
5723;DHT22;2886;49.722;8.612;2023-03-13T03:32:09;10.90;99.90
5723;DHT22;2886;49.722;8.612;2023-03-13T03:34:35;10.90;99.90
5723;DHT22;2886;49.722;8.612;2023-03-13T03:37:01;10.90;99.90
5723;DHT22;2886;49.722;8.612;2023-03-13T03:39:27;10.90;99.90
5723;DHT22;2886;49.722;8.612;2023-03-13T03:41:52;10.90;99.90
5723;DHT22;2886;49.722;8.612;2023-03-13T03:44:18;10.90;99.90
5723;DHT22;2886;49.722;8.612;2023-03-13T03:46:43;10.90;99.90
5723;DHT22;2886;49.722;8.612;2023-03-13T03:49:09;11.00;99.90
5723;DHT22;2886;49.722;8.612;2023-03-13T03:51:35;10.90;99.90
5723;DHT22;2886;49.722;8.612;2023-03-13T03:54:00;10.90;99.90
5723;DHT22;2886;49.722;8.612;2023-03-13T03:56:26;10.90;99.90
5723;DHT22;2886;49.722;8.612;2023-03-13T03:58:51;11.00;99.90
5723;DHT22;2886;49.722;8.612;2023-03-13T04:01:17;11.00;99.90
5723;DHT22;2886;49.722;8.612;2023-03-13T04:03:43;10.90;99.90
5723;DHT22;2886;49.722;8.612;2023-03-13T04:06:08;10.80;99.90
5723;DHT22;2886;49.722;8.612;2023-03-13T04:08:34;10.70;99.90
5723;DHT22;2886;49.722;8.612;2023-03-13T04:11:00;10.70;99.90
5723;DHT22;2886;49.722;8.612;2023-03-13T04:13:26;10.60;99.90
5723;DHT22;2886;49.722;8.612;2023-03-13T04:15:52;10.60;99.90
5723;DHT22;2886;49.722;8.612;2023-03-13T04:18:17;10.60;99.90
5723;DHT22;2886;49.722;8.612;2023-03-13T04:20:43;10.60;99.90
5723;DHT22;2886;49.722;8.612;2023-03-13T04:23:09;10.60;99.90
5723;DHT22;2886;49.722;8.612;2023-03-13T04:25:35;10.60;99.90
5723;DHT22;2886;49.722;8.612;2023-03-13T04:28:00;10.60;99.90
5723;DHT22;2886;49.722;8.612;2023-03-13T04:30:26;10.60;99.90
5723;DHT22;2886;49.722;8.612;2023-03-13T04:32:52;10.70;99.90
5723;DHT22;2886;49.722;8.612;2023-03-13T04:35:18;10.70;99.90
5723;DHT22;2886;49.722;8.612;2023-03-13T04:37:43;10.70;99.90
5723;DHT22;2886;49.722;8.612;2023-03-13T04:40:09;10.60;99.90
5723;DHT22;2886;49.722;8.612;2023-03-13T04:42:37;10.70;99.90
5723;DHT22;2886;49.722;8.612;2023-03-13T04:45:02;10.70;99.90
5723;DHT22;2886;49.722;8.612;2023-03-13T04:47:28;10.70;99.90
5723;DHT22;2886;49.722;8.612;2023-03-13T04:49:54;10.70;99.90
5723;DHT22;2886;49.722;8.612;2023-03-13T04:52:19;10.70;99.90
5723;DHT22;2886;49.722;8.612;2023-03-13T04:54:45;10.70;99.90
5723;DHT22;2886;49.722;8.612;2023-03-13T04:57:11;10.70;99.90
5723;DHT22;2886;49.722;8.612;2023-03-13T04:59:36;10.80;99.90
5723;DHT22;2886;49.722;8.612;2023-03-13T05:02:02;10.70;99.90
5723;DHT22;2886;49.722;8.612;2023-03-13T05:04:27;10.80;99.90
5723;DHT22;2886;49.722;8.612;2023-03-13T05:06:53;10.80;99.90
5723;DHT22;2886;49.722;8.612;2023-03-13T05:09:18;10.80;99.90
5723;DHT22;2886;49.722;8.612;2023-03-13T05:11:44;10.80;99.90
5723;DHT22;2886;49.722;8.612;2023-03-13T05:14:10;10.80;99.90
5723;DHT22;2886;49.722;8.612;2023-03-13T05:16:37;10.80;99.90
5723;DHT22;2886;49.722;8.612;2023-03-13T05:19:02;10.80;99.90
5723;DHT22;2886;49.722;8.612;2023-03-13T05:21:28;10.80;99.90
5723;DHT22;2886;49.722;8.612;2023-03-13T05:23:53;10.80;99.90
5723;DHT22;2886;49.722;8.612;2023-03-13T05:26:19;10.80;99.90
5723;DHT22;2886;49.722;8.612;2023-03-13T05:28:45;10.80;99.90
5723;DHT22;2886;49.722;8.612;2023-03-13T05:31:11;10.80;99.90
5723;DHT22;2886;49.722;8.612;2023-03-13T05:33:37;10.80;99.90
5723;DHT22;2886;49.722;8.612;2023-03-13T05:36:03;10.80;99.90
5723;DHT22;2886;49.722;8.612;2023-03-13T05:38:29;10.80;99.90
5723;DHT22;2886;49.722;8.612;2023-03-13T05:40:54;10.80;99.90
5723;DHT22;2886;49.722;8.612;2023-03-13T05:43:20;10.90;99.90
5723;DHT22;2886;49.722;8.612;2023-03-13T05:45:45;10.90;99.90
5723;DHT22;2886;49.722;8.612;2023-03-13T05:48:11;10.90;99.90
5723;DHT22;2886;49.722;8.612;2023-03-13T05:50:37;10.90;99.90
5723;DHT22;2886;49.722;8.612;2023-03-13T05:53:02;10.90;99.90
5723;DHT22;2886;49.722;8.612;2023-03-13T05:55:28;10.90;99.90
5723;DHT22;2886;49.722;8.612;2023-03-13T05:57:54;10.90;99.90
5723;DHT22;2886;49.722;8.612;2023-03-13T06:00:20;11.00;99.90
5723;DHT22;2886;49.722;8.612;2023-03-13T06:02:45;11.00;99.90
5723;DHT22;2886;49.722;8.612;2023-03-13T06:05:11;11.10;99.90
5723;DHT22;2886;49.722;8.612;2023-03-13T06:07:37;11.10;99.90
5723;DHT22;2886;49.722;8.612;2023-03-13T06:10:03;11.10;99.90
5723;DHT22;2886;49.722;8.612;2023-03-13T06:12:29;11.20;99.90
5723;DHT22;2886;49.722;8.612;2023-03-13T06:14:55;11.20;99.90
5723;DHT22;2886;49.722;8.612;2023-03-13T06:17:21;11.20;99.90
5723;DHT22;2886;49.722;8.612;2023-03-13T06:19:46;11.30;99.90
5723;DHT22;2886;49.722;8.612;2023-03-13T06:22:12;11.30;99.90
5723;DHT22;2886;49.722;8.612;2023-03-13T06:24:38;11.30;99.90
5723;DHT22;2886;49.722;8.612;2023-03-13T06:27:03;11.30;99.90
5723;DHT22;2886;49.722;8.612;2023-03-13T06:29:29;11.40;99.90
5723;DHT22;2886;49.722;8.612;2023-03-13T06:31:55;11.40;99.90
5723;DHT22;2886;49.722;8.612;2023-03-13T06:34:20;11.50;99.90
5723;DHT22;2886;49.722;8.612;2023-03-13T06:36:46;11.50;99.90
5723;DHT22;2886;49.722;8.612;2023-03-13T06:39:12;11.50;99.90
5723;DHT22;2886;49.722;8.612;2023-03-13T06:41:38;11.60;99.90
5723;DHT22;2886;49.722;8.612;2023-03-13T06:44:04;11.60;99.90
5723;DHT22;2886;49.722;8.612;2023-03-13T06:46:29;11.60;99.90
5723;DHT22;2886;49.722;8.612;2023-03-13T06:48:57;11.70;99.90
5723;DHT22;2886;49.722;8.612;2023-03-13T06:51:23;11.70;99.90
5723;DHT22;2886;49.722;8.612;2023-03-13T06:53:50;11.80;99.90
5723;DHT22;2886;49.722;8.612;2023-03-13T06:56:16;11.80;99.90
5723;DHT22;2886;49.722;8.612;2023-03-13T06:58:45;11.80;99.90
5723;DHT22;2886;49.722;8.612;2023-03-13T07:01:13;11.90;99.90
5723;DHT22;2886;49.722;8.612;2023-03-13T07:03:39;11.90;99.90
5723;DHT22;2886;49.722;8.612;2023-03-13T07:06:09;12.00;99.90
5723;DHT22;2886;49.722;8.612;2023-03-13T07:08:35;12.00;99.90
5723;DHT22;2886;49.722;8.612;2023-03-13T07:11:03;12.00;99.90
5723;DHT22;2886;49.722;8.612;2023-03-13T07:13:30;12.10;99.90
5723;DHT22;2886;49.722;8.612;2023-03-13T07:15:59;12.10;99.90
5723;DHT22;2886;49.722;8.612;2023-03-13T07:18:25;12.10;99.90
5723;DHT22;2886;49.722;8.612;2023-03-13T07:20:55;12.10;99.90
5723;DHT22;2886;49.722;8.612;2023-03-13T07:23:22;12.20;99.90
5723;DHT22;2886;49.722;8.612;2023-03-13T07:25:59;12.20;99.90
5723;DHT22;2886;49.722;8.612;2023-03-13T07:28:25;12.20;99.90
5723;DHT22;2886;49.722;8.612;2023-03-13T07:30:51;12.20;99.90
5723;DHT22;2886;49.722;8.612;2023-03-13T07:33:17;12.20;99.90
5723;DHT22;2886;49.722;8.612;2023-03-13T07:35:51;12.30;99.90
5723;DHT22;2886;49.722;8.612;2023-03-13T07:38:17;12.30;99.90
5723;DHT22;2886;49.722;8.612;2023-03-13T07:40:50;12.30;99.90
5723;DHT22;2886;49.722;8.612;2023-03-13T07:43:16;12.30;99.90
5723;DHT22;2886;49.722;8.612;2023-03-13T07:45:53;12.40;99.90
5723;DHT22;2886;49.722;8.612;2023-03-13T07:48:20;12.30;99.90
5723;DHT22;2886;49.722;8.612;2023-03-13T07:50:46;12.40;99.90
5723;DHT22;2886;49.722;8.612;2023-03-13T07:53:11;12.40;99.90
5723;DHT22;2886;49.722;8.612;2023-03-13T07:55:37;12.40;99.90
5723;DHT22;2886;49.722;8.612;2023-03-13T07:58:03;12.40;99.90
5723;DHT22;2886;49.722;8.612;2023-03-13T08:00:28;12.40;99.90
5723;DHT22;2886;49.722;8.612;2023-03-13T08:02:54;12.40;99.90
5723;DHT22;2886;49.722;8.612;2023-03-13T08:05:20;12.50;99.90
5723;DHT22;2886;49.722;8.612;2023-03-13T08:07:45;12.50;99.90
5723;DHT22;2886;49.722;8.612;2023-03-13T08:10:11;12.50;99.90
5723;DHT22;2886;49.722;8.612;2023-03-13T08:12:36;12.60;99.90
5723;DHT22;2886;49.722;8.612;2023-03-13T08:15:02;12.60;99.90
5723;DHT22;2886;49.722;8.612;2023-03-13T08:17:29;12.70;99.90
5723;DHT22;2886;49.722;8.612;2023-03-13T08:19:55;12.70;99.90
5723;DHT22;2886;49.722;8.612;2023-03-13T08:22:20;12.70;99.90
5723;DHT22;2886;49.722;8.612;2023-03-13T08:24:46;12.80;99.90
5723;DHT22;2886;49.722;8.612;2023-03-13T08:27:12;12.90;99.90
5723;DHT22;2886;49.722;8.612;2023-03-13T08:29:38;12.90;99.90
5723;DHT22;2886;49.722;8.612;2023-03-13T08:32:03;12.90;99.90
5723;DHT22;2886;49.722;8.612;2023-03-13T08:34:29;12.90;99.90
5723;DHT22;2886;49.722;8.612;2023-03-13T08:36:55;13.00;99.90
5723;DHT22;2886;49.722;8.612;2023-03-13T08:39:22;13.00;99.90
5723;DHT22;2886;49.722;8.612;2023-03-13T08:41:48;13.10;99.90
5723;DHT22;2886;49.722;8.612;2023-03-13T08:44:16;13.20;99.90
5723;DHT22;2886;49.722;8.612;2023-03-13T08:46:42;13.20;99.90
5723;DHT22;2886;49.722;8.612;2023-03-13T08:49:08;13.30;99.90
5723;DHT22;2886;49.722;8.612;2023-03-13T08:51:35;13.50;99.90
5723;DHT22;2886;49.722;8.612;2023-03-13T08:54:01;13.60;99.90
5723;DHT22;2886;49.722;8.612;2023-03-13T08:56:28;13.80;99.90
5723;DHT22;2886;49.722;8.612;2023-03-13T08:58:59;13.90;99.90
5723;DHT22;2886;49.722;8.612;2023-03-13T09:01:27;14.00;99.90
5723;DHT22;2886;49.722;8.612;2023-03-13T09:03:53;14.10;99.90
5723;DHT22;2886;49.722;8.612;2023-03-13T09:06:19;14.20;99.90
5723;DHT22;2886;49.722;8.612;2023-03-13T09:08:45;14.30;99.90
5723;DHT22;2886;49.722;8.612;2023-03-13T09:11:12;14.50;99.90
5723;DHT22;2886;49.722;8.612;2023-03-13T09:13:41;14.70;99.90
5723;DHT22;2886;49.722;8.612;2023-03-13T09:16:13;14.70;99.90
5723;DHT22;2886;49.722;8.612;2023-03-13T09:18:39;14.80;99.90
5723;DHT22;2886;49.722;8.612;2023-03-13T09:21:08;14.80;99.90
5723;DHT22;2886;49.722;8.612;2023-03-13T09:23:33;14.80;99.90
5723;DHT22;2886;49.722;8.612;2023-03-13T09:25:59;14.80;99.90
5723;DHT22;2886;49.722;8.612;2023-03-13T09:28:26;14.70;99.90
5723;DHT22;2886;49.722;8.612;2023-03-13T09:30:52;14.70;99.90
5723;DHT22;2886;49.722;8.612;2023-03-13T09:33:19;14.70;99.90
5723;DHT22;2886;49.722;8.612;2023-03-13T09:35:45;14.60;99.90
5723;DHT22;2886;49.722;8.612;2023-03-13T09:38:18;14.70;99.90
5723;DHT22;2886;49.722;8.612;2023-03-13T09:40:46;14.80;99.90
5723;DHT22;2886;49.722;8.612;2023-03-13T09:46:08;15.10;99.90
5723;DHT22;2886;49.722;8.612;2023-03-13T09:48:39;15.20;99.90
5723;DHT22;2886;49.722;8.612;2023-03-13T09:51:28;15.30;99.90
5723;DHT22;2886;49.722;8.612;2023-03-13T09:54:04;15.30;99.90
5723;DHT22;2886;49.722;8.612;2023-03-13T09:56:38;15.30;99.90
5723;DHT22;2886;49.722;8.612;2023-03-13T09:59:14;15.30;99.90
5723;DHT22;2886;49.722;8.612;2023-03-13T10:01:41;15.20;99.90
5723;DHT22;2886;49.722;8.612;2023-03-13T10:04:35;15.30;99.90
5723;DHT22;2886;49.722;8.612;2023-03-13T10:07:03;15.20;99.90
5723;DHT22;2886;49.722;8.612;2023-03-13T10:09:32;15.30;99.90
5723;DHT22;2886;49.722;8.612;2023-03-13T10:14:34;15.30;99.90
5723;DHT22;2886;49.722;8.612;2023-03-13T10:17:14;15.40;99.90
5723;DHT22;2886;49.722;8.612;2023-03-13T10:19:44;15.50;99.90
5723;DHT22;2886;49.722;8.612;2023-03-13T10:22:17;15.50;99.90
5723;DHT22;2886;49.722;8.612;2023-03-13T10:27:16;15.40;99.90
5723;DHT22;2886;49.722;8.612;2023-03-13T10:29:42;15.40;99.90
5723;DHT22;2886;49.722;8.612;2023-03-13T10:32:12;15.40;99.90
5723;DHT22;2886;49.722;8.612;2023-03-13T10:34:52;15.20;99.90
5723;DHT22;2886;49.722;8.612;2023-03-13T10:37:47;15.00;99.90
5723;DHT22;2886;49.722;8.612;2023-03-13T10:42:52;14.90;99.90
5723;DHT22;2886;49.722;8.612;2023-03-13T10:45:19;15.00;99.90
5723;DHT22;2886;49.722;8.612;2023-03-13T10:47:53;15.00;99.90
5723;DHT22;2886;49.722;8.612;2023-03-13T10:50:22;15.00;99.90
5723;DHT22;2886;49.722;8.612;2023-03-13T10:52:49;15.10;99.90
5723;DHT22;2886;49.722;8.612;2023-03-13T10:55:20;15.00;99.90
5723;DHT22;2886;49.722;8.612;2023-03-13T10:58:00;15.10;99.90
5723;DHT22;2886;49.722;8.612;2023-03-13T11:02:58;15.50;99.90
5723;DHT22;2886;49.722;8.612;2023-03-13T11:05:32;15.60;99.90
5723;DHT22;2886;49.722;8.612;2023-03-13T11:08:20;15.80;99.90
5723;DHT22;2886;49.722;8.612;2023-03-13T11:10:58;15.90;99.90
5723;DHT22;2886;49.722;8.612;2023-03-13T11:13:39;16.30;99.90
5723;DHT22;2886;49.722;8.612;2023-03-13T11:16:22;16.60;99.90
5723;DHT22;2886;49.722;8.612;2023-03-13T11:27:25;17.80;98.30
5723;DHT22;2886;49.722;8.612;2023-03-13T11:32:46;18.20;96.60
5723;DHT22;2886;49.722;8.612;2023-03-13T11:35:42;18.10;97.10
5723;DHT22;2886;49.722;8.612;2023-03-13T11:38:24;17.80;98.10
5723;DHT22;2886;49.722;8.612;2023-03-13T11:48:59;17.30;98.10
5723;DHT22;2886;49.722;8.612;2023-03-13T12:00:14;17.00;99.00
5723;DHT22;2886;49.722;8.612;2023-03-13T12:02:48;17.10;98.70
5723;DHT22;2886;49.722;8.612;2023-03-13T12:05:19;17.00;99.00
5723;DHT22;2886;49.722;8.612;2023-03-13T12:08:02;17.20;98.40
5723;DHT22;2886;49.722;8.612;2023-03-13T12:10:36;17.20;98.20
5723;DHT22;2886;49.722;8.612;2023-03-13T12:18:24;17.40;97.50
5723;DHT22;2886;49.722;8.612;2023-03-13T12:21:01;17.30;97.70
5723;DHT22;2886;49.722;8.612;2023-03-13T12:26:16;17.30;97.30
5723;DHT22;2886;49.722;8.612;2023-03-13T12:28:51;17.40;97.40
5723;DHT22;2886;49.722;8.612;2023-03-13T12:31:28;17.50;96.90
5723;DHT22;2886;49.722;8.612;2023-03-13T12:34:26;17.50;96.90
5723;DHT22;2886;49.722;8.612;2023-03-13T12:37:17;17.50;96.80
5723;DHT22;2886;49.722;8.612;2023-03-13T12:39:59;17.50;96.90
5723;DHT22;2886;49.722;8.612;2023-03-13T12:44:53;17.80;96.80
5723;DHT22;2886;49.722;8.612;2023-03-13T12:47:33;17.90;96.50
5723;DHT22;2886;49.722;8.612;2023-03-13T12:53:31;17.70;96.80
5723;DHT22;2886;49.722;8.612;2023-03-13T12:58:43;17.50;96.70
5723;DHT22;2886;49.722;8.612;2023-03-13T13:01:16;17.40;97.00
5723;DHT22;2886;49.722;8.612;2023-03-13T13:03:50;17.50;96.90
5723;DHT22;2886;49.722;8.612;2023-03-13T13:06:17;17.50;97.00
5723;DHT22;2886;49.722;8.612;2023-03-13T13:08:48;17.60;96.90
5723;DHT22;2886;49.722;8.612;2023-03-13T13:16:43;17.60;96.90
5723;DHT22;2886;49.722;8.612;2023-03-13T13:24:59;17.60;96.50
5723;DHT22;2886;49.722;8.612;2023-03-13T13:29:58;18.00;96.00
5723;DHT22;2886;49.722;8.612;2023-03-13T13:32:36;18.10;95.60
5723;DHT22;2886;49.722;8.612;2023-03-13T13:35:17;18.30;94.80
5723;DHT22;2886;49.722;8.612;2023-03-13T13:37:44;18.50;94.40
5723;DHT22;2886;49.722;8.612;2023-03-13T13:40:20;18.70;93.80
5723;DHT22;2886;49.722;8.612;2023-03-13T13:43:03;18.90;93.30
5723;DHT22;2886;49.722;8.612;2023-03-13T13:45:35;19.00;92.70
5723;DHT22;2886;49.722;8.612;2023-03-13T13:48:33;19.20;91.70
5723;DHT22;2886;49.722;8.612;2023-03-13T13:53:48;19.20;91.20
5723;DHT22;2886;49.722;8.612;2023-03-13T13:59:05;19.30;90.70
5723;DHT22;2886;49.722;8.612;2023-03-13T14:01:40;19.30;90.20
5723;DHT22;2886;49.722;8.612;2023-03-13T14:06:38;19.30;89.40
5723;DHT22;2886;49.722;8.612;2023-03-13T14:09:34;19.30;89.90
5723;DHT22;2886;49.722;8.612;2023-03-13T14:12:24;19.30;89.30
5723;DHT22;2886;49.722;8.612;2023-03-13T14:17:40;19.40;89.00
5723;DHT22;2886;49.722;8.612;2023-03-13T14:20:27;19.40;89.30
5723;DHT22;2886;49.722;8.612;2023-03-13T14:22:55;19.50;87.40
5723;DHT22;2886;49.722;8.612;2023-03-13T14:25:23;19.40;88.30
5723;DHT22;2886;49.722;8.612;2023-03-13T14:27:49;19.20;89.00
5723;DHT22;2886;49.722;8.612;2023-03-13T14:30:18;19.20;87.40
5723;DHT22;2886;49.722;8.612;2023-03-13T14:32:44;19.30;87.50
5723;DHT22;2886;49.722;8.612;2023-03-13T14:35:15;19.30;87.30
5723;DHT22;2886;49.722;8.612;2023-03-13T14:37:49;19.40;85.70
5723;DHT22;2886;49.722;8.612;2023-03-13T14:40:28;19.50;85.10
5723;DHT22;2886;49.722;8.612;2023-03-13T14:42:59;19.50;84.70
5723;DHT22;2886;49.722;8.612;2023-03-13T14:45:29;19.40;84.40
5723;DHT22;2886;49.722;8.612;2023-03-13T14:48:03;19.50;85.00
5723;DHT22;2886;49.722;8.612;2023-03-13T14:50:30;19.60;85.40
5723;DHT22;2886;49.722;8.612;2023-03-13T14:53:02;19.70;84.10
5723;DHT22;2886;49.722;8.612;2023-03-13T14:55:34;19.80;82.40
5723;DHT22;2886;49.722;8.612;2023-03-13T14:58:25;19.80;83.60
5723;DHT22;2886;49.722;8.612;2023-03-13T15:00:51;19.80;83.10
5723;DHT22;2886;49.722;8.612;2023-03-13T15:03:20;19.70;83.10
5723;DHT22;2886;49.722;8.612;2023-03-13T15:08:17;19.50;83.50
5723;DHT22;2886;49.722;8.612;2023-03-13T15:10:43;19.40;84.30
5723;DHT22;2886;49.722;8.612;2023-03-13T15:13:36;19.40;85.40
5723;DHT22;2886;49.722;8.612;2023-03-13T15:16:11;19.40;85.50
5723;DHT22;2886;49.722;8.612;2023-03-13T15:18:38;19.40;86.40
5723;DHT22;2886;49.722;8.612;2023-03-13T15:23:35;19.30;87.00
5723;DHT22;2886;49.722;8.612;2023-03-13T15:26:01;19.20;87.00
5723;DHT22;2886;49.722;8.612;2023-03-13T15:28:27;19.10;87.40
5723;DHT22;2886;49.722;8.612;2023-03-13T15:30:53;19.10;87.30
5723;DHT22;2886;49.722;8.612;2023-03-13T15:33:21;19.00;87.20
5723;DHT22;2886;49.722;8.612;2023-03-13T15:35:47;18.90;87.40
5723;DHT22;2886;49.722;8.612;2023-03-13T15:38:16;18.90;87.20
5723;DHT22;2886;49.722;8.612;2023-03-13T15:40:43;18.80;86.80
5723;DHT22;2886;49.722;8.612;2023-03-13T15:43:11;18.80;85.80
5723;DHT22;2886;49.722;8.612;2023-03-13T15:45:39;18.80;85.30
5723;DHT22;2886;49.722;8.612;2023-03-13T15:50:42;16.80;93.20
5723;DHT22;2886;49.722;8.612;2023-03-13T15:53:19;12.80;99.90
5723;DHT22;2886;49.722;8.612;2023-03-13T15:55:46;11.60;99.90
5723;DHT22;2886;49.722;8.612;2023-03-13T15:58:13;11.30;99.90
5723;DHT22;2886;49.722;8.612;2023-03-13T16:00:39;11.20;99.90
5723;DHT22;2886;49.722;8.612;2023-03-13T16:03:07;11.20;99.90
5723;DHT22;2886;49.722;8.612;2023-03-13T16:05:33;11.30;99.90
5723;DHT22;2886;49.722;8.612;2023-03-13T16:07:59;11.40;99.90
5723;DHT22;2886;49.722;8.612;2023-03-13T16:10:27;11.40;99.90
5723;DHT22;2886;49.722;8.612;2023-03-13T16:12:53;11.30;99.90
5723;DHT22;2886;49.722;8.612;2023-03-13T16:15:19;11.30;99.90
5723;DHT22;2886;49.722;8.612;2023-03-13T16:17:45;11.30;99.90
5723;DHT22;2886;49.722;8.612;2023-03-13T16:20:19;11.30;99.90
5723;DHT22;2886;49.722;8.612;2023-03-13T16:22:46;11.40;99.90
5723;DHT22;2886;49.722;8.612;2023-03-13T16:25:12;11.40;99.90
5723;DHT22;2886;49.722;8.612;2023-03-13T16:27:38;11.40;99.90
5723;DHT22;2886;49.722;8.612;2023-03-13T16:30:23;11.50;99.90
5723;DHT22;2886;49.722;8.612;2023-03-13T16:32:49;11.50;99.90
5723;DHT22;2886;49.722;8.612;2023-03-13T16:35:15;11.50;99.90
5723;DHT22;2886;49.722;8.612;2023-03-13T16:37:42;11.60;99.90
5723;DHT22;2886;49.722;8.612;2023-03-13T16:40:30;11.70;99.90
5723;DHT22;2886;49.722;8.612;2023-03-13T16:42:56;11.70;99.90
5723;DHT22;2886;49.722;8.612;2023-03-13T16:45:22;11.80;99.90
5723;DHT22;2886;49.722;8.612;2023-03-13T16:47:48;11.80;99.90
5723;DHT22;2886;49.722;8.612;2023-03-13T16:50:18;11.90;99.90
5723;DHT22;2886;49.722;8.612;2023-03-13T16:52:45;11.90;99.90
5723;DHT22;2886;49.722;8.612;2023-03-13T16:55:10;12.00;99.90
5723;DHT22;2886;49.722;8.612;2023-03-13T16:57:36;12.10;99.90
5723;DHT22;2886;49.722;8.612;2023-03-13T17:00:05;12.10;99.90
5723;DHT22;2886;49.722;8.612;2023-03-13T17:02:35;12.10;99.90
5723;DHT22;2886;49.722;8.612;2023-03-13T17:05:02;12.10;99.90
5723;DHT22;2886;49.722;8.612;2023-03-13T17:07:27;12.10;99.90
5723;DHT22;2886;49.722;8.612;2023-03-13T17:09:54;12.20;99.90
5723;DHT22;2886;49.722;8.612;2023-03-13T17:12:19;12.20;99.90
5723;DHT22;2886;49.722;8.612;2023-03-13T17:14:45;12.20;99.90
5723;DHT22;2886;49.722;8.612;2023-03-13T17:17:16;12.20;99.90
5723;DHT22;2886;49.722;8.612;2023-03-13T17:19:43;12.20;99.90
5723;DHT22;2886;49.722;8.612;2023-03-13T17:22:13;12.20;99.90
5723;DHT22;2886;49.722;8.612;2023-03-13T17:24:40;12.20;99.90
5723;DHT22;2886;49.722;8.612;2023-03-13T17:27:13;12.20;99.90
5723;DHT22;2886;49.722;8.612;2023-03-13T17:29:41;12.20;99.90
5723;DHT22;2886;49.722;8.612;2023-03-13T17:32:12;12.20;99.90
5723;DHT22;2886;49.722;8.612;2023-03-13T17:34:38;12.20;99.90
5723;DHT22;2886;49.722;8.612;2023-03-13T17:37:20;12.20;99.90
5723;DHT22;2886;49.722;8.612;2023-03-13T17:39:47;12.20;99.90
5723;DHT22;2886;49.722;8.612;2023-03-13T17:42:13;12.20;99.90
5723;DHT22;2886;49.722;8.612;2023-03-13T17:44:39;12.20;99.90
5723;DHT22;2886;49.722;8.612;2023-03-13T17:47:19;12.20;99.90
5723;DHT22;2886;49.722;8.612;2023-03-13T17:49:48;12.20;99.90
5723;DHT22;2886;49.722;8.612;2023-03-13T17:52:15;12.20;99.90
5723;DHT22;2886;49.722;8.612;2023-03-13T17:54:42;12.20;99.90
5723;DHT22;2886;49.722;8.612;2023-03-13T17:57:16;12.20;99.90